Terminal Aerodrome Forecast
Issued by NWS

Home | Current Version | Previous Version | Text Only | Print | Product List | Glossary On
Versions: 1 2 3 4 5 6 7 8 9 10 11 12 13 14
000
FTUS46 KSGX 311700
TAFPSP
TAF
KPSP 311722Z 3118/0118 32011KT P6SM SCT200
     FM311900 VRB06KT P6SM BKN200
     FM010000 33010G18KT P6SM SCT200
     FM010600 VRB06KT P6SM SCT200=

USA.gov is the U.S. government's official web portal to all federal, state and local government web resources and services.